Charleston, Arkansas
Current Conditions -  °F | °C
As of 2:53 AM on Friday 24 Oct 2014 (Local Time) from KFSM Reporting Station
Clear Clear  
Wind Chill: 55°   Ceiling: Unl
Heat Index: 55°   Visibility: 10mi
Dew Point: 53°   Wind: 3mph
Humidity: 93%   Direction: 40°NE
Pressure: 30.14"   Gusts: NA
Location:  35.3°N, 94.04°W
Report Text: KFSM 240753Z AUTO 04003KT 10SM CLR 13/12 A3014 RMK AO2 SLP204 T01280117
Loading
Personal Weather Stations






























Interactive Weather Map
Tropical Storm Tracking
New forecast layout! Learn more

10-Day Weather Forecast

Advertisements
Track Severe Weather on mobile